createdAt,value
2018-12-24T00:00:55.119Z,24.05
2018-12-24T00:15:51.434Z,24.85
2018-12-24T00:30:51.334Z,18.65
2018-12-24T00:45:51.138Z,18.52
2018-12-24T01:00:52.230Z,14.98
2018-12-24T01:15:54.057Z,16.85
2018-12-24T01:30:51.470Z,13.48
2018-12-24T01:45:54.362Z,12.75
2018-12-24T02:00:51.003Z,12.20
2018-12-24T02:15:54.265Z,11.45
2018-12-24T02:30:51.698Z,10.43
2018-12-24T02:45:51.510Z,11.85
2018-12-24T03:00:51.023Z,12.80
2018-12-24T03:15:52.985Z,13.80
2018-12-24T03:30:52.922Z,16.15
2018-12-24T03:45:53.395Z,18.00
2018-12-24T04:00:56.548Z,16.02
2018-12-24T04:15:53.923Z,19.73
2018-12-24T04:30:52.441Z,20.12
2018-12-24T04:45:52.783Z,18.95
2018-12-24T05:00:51.799Z,17.48
2018-12-24T05:15:52.628Z,17.02
2018-12-24T05:30:53.004Z,18.77
2018-12-24T05:45:51.935Z,19.45
2018-12-24T06:00:51.344Z,16.37
2018-12-24T06:15:51.215Z,15.75
2018-12-24T06:30:51.702Z,15.10
2018-12-24T06:45:50.878Z,14.50
2018-12-24T07:00:53.083Z,11.38
2018-12-24T07:15:52.199Z,11.97
2018-12-24T07:30:51.626Z,12.03
2018-12-24T07:45:51.004Z,12.45
2018-12-24T08:00:59.114Z,13.40
2018-12-24T08:15:53.570Z,10.03
2018-12-24T08:30:51.257Z,11.35
2018-12-24T08:45:51.448Z,11.55
2018-12-24T09:00:53.189Z,12.98
2018-12-24T09:15:55.160Z,11.40
2018-12-24T09:30:53.465Z,11.20
2018-12-24T09:45:53.471Z,12.07
2018-12-24T10:00:50.661Z,2.60
2018-12-24T10:15:51.726Z,2.80
2018-12-24T10:30:54.127Z,17.57
2018-12-24T10:45:52.423Z,15.53
2018-12-24T11:00:55.589Z,9.50
2018-12-24T11:15:52.662Z,5.78
2018-12-24T11:30:56.631Z,3.67
2018-12-24T11:45:54.229Z,2.40
2018-12-24T12:00:53.697Z,2.10
2018-12-24T12:15:50.569Z,2.02
2018-12-24T12:30:51.150Z,2.12
2018-12-24T12:45:51.632Z,2.75
2018-12-24T13:15:59.370Z,2.77
2018-12-24T13:30:52.991Z,2.30
2018-12-24T13:45:52.960Z,2.87
2018-12-24T14:00:59.709Z,3.00
2018-12-24T14:15:53.330Z,2.55
2018-12-24T14:30:52.734Z,2.50
2018-12-24T14:45:51.633Z,2.80
2018-12-24T15:00:51.624Z,3.22
2018-12-24T15:15:53.517Z,2.65
2018-12-24T15:30:53.592Z,4.20
2018-12-24T15:45:53.658Z,3.60
2018-12-24T16:15:53.174Z,2.20
2018-12-24T16:30:54.490Z,3.20
2018-12-24T16:45:57.349Z,2.92
2018-12-24T17:15:54.637Z,1.98
2018-12-24T17:30:54.319Z,2.40
2018-12-24T17:45:57.183Z,2.30
2018-12-24T18:00:53.787Z,2.67
2018-12-24T18:15:53.391Z,2.55
2018-12-24T18:30:57.475Z,2.62
2018-12-24T19:00:54.891Z,1.90
2018-12-24T19:15:58.178Z,1.77
2018-12-24T19:30:54.168Z,1.70
2018-12-24T19:45:59.351Z,2.83
2018-12-24T20:15:54.691Z,3.87
2018-12-24T20:30:59.031Z,2.60
2018-12-24T20:45:53.455Z,2.80
2018-12-24T21:15:52.364Z,2.67
2018-12-24T21:30:55.188Z,2.50
2018-12-24T22:00:55.955Z,3.30
2018-12-24T22:15:53.497Z,3.30
2018-12-24T22:30:57.969Z,4.87
2018-12-24T23:00:56.677Z,3.92
2018-12-24T23:15:58.282Z,3.20
2018-12-24T23:30:59.147Z,2.80
2018-12-24T23:45:55.765Z,3.00
